This is the latest recevied weather packets stored in our database for station/object W1WRA. If no packets are shown the sender has not sent any weather packets the latest 10 day(s).
| Time | Temp. | Humidity | Pressure | Rain* | Wind** | Luminosity | Snow |
|---|---|---|---|---|---|---|---|
| 1777702517 | 7.78° C | 76% | 1011.9 hPa | 0 mm | - | 0 W/m² | - |
| 1777700137 | 7.22° C | 72% | 1011.7 hPa | 0 mm | - | 0 W/m² | - |
| 1777697717 | 7.22° C | 74% | 1011.7 hPa | 0 mm | - | 0 W/m² | - |
| 1777697117 | 7.22° C | 73% | 1011.7 hPa | 0 mm | - | 0 W/m² | - |
| 1777695918 | 7.22° C | 72% | 1011.6 hPa | 0 mm | - | 0 W/m² | - |
| 1777694718 | 7.22° C | 72% | 1011.5 hPa | 0 mm | - | 0 W/m² | - |
| 1777694138 | 7.22° C | 73% | 1011.6 hPa | 0 mm | - | 0 W/m² | - |
| 1777691156 | 6.67° C | 72% | 1011.3 hPa | 0 mm | - | 0 W/m² | - |
| 1777688716 | 6.11° C | 74% | 1011.3 hPa | 0 mm | - | 0 W/m² | - |
| 1777686917 | 6.11° C | 72% | 1011.3 hPa | 0 mm | - | 0 W/m² | - |
| 1777681518 | 8.89° C | 64% | 1010.7 hPa | 0 mm | - | 0 W/m² | - |
| 1777676716 | 12.78° C | 42% | 1009.6 hPa | 0 mm | - | 15 W/m² | - |
| 1777671318 | 14.44° C | 35% | 1009.2 hPa | 0 mm | - | 35 W/m² | - |
| 1777670718 | 14.44° C | 35% | 1009.2 hPa | 0 mm | - | 33 W/m² | - |
| 1777668935 | 15° C | 33% | 1008.7 hPa | 0 mm | - | 43 W/m² | - |
| 1777668318 | 15° C | 33% | 1008.6 hPa | 0 mm | - | 41 W/m² | - |
| 1777664116 | 15° C | 34% | 1008.8 hPa | 0 mm | - | 49 W/m² | - |
| 1777661717 | 15° C | 39% | 1009.1 hPa | 0 mm | - | 128 W/m² | - |
| 1777659337 | 16.11° C | 36% | 1009.1 hPa | 0 mm | - | 451 W/m² | - |
| 1777657515 | 16.11° C | 39% | 1009.2 hPa | 0 mm | - | 708 W/m² | - |
| 1777656918 | 15.56° C | 40% | 1009.2 hPa | 0 mm | - | 648 W/m² | - |
| 1777652136 | 13.33° C | 46% | 1009.6 hPa | 0 mm | - | 905 W/m² | - |
| 1777651517 | 13.89° C | 43% | 1009.8 hPa | 0 mm | - | 928 W/m² | - |
| 1777648517 | 11.67° C | 50% | 1010.1 hPa | 0 mm | - | 931 W/m² | - |
| 1777641318 | 8.89° C | 62% | 1009.9 hPa | 0 mm | - | 372 W/m² | - |
* Rain latest hour (hover to see other rain measurements)
** Current wind speed in m/s (hover to see current wind gust speed)